createdAt,value
2018-05-27T06:01:19.562Z,75.70
2018-05-27T06:03:47.771Z,76.10
2018-05-27T06:06:18.304Z,76.70
2018-05-27T06:08:48.781Z,76.60
2018-05-27T06:11:17.485Z,75.70
2018-05-27T06:13:46.975Z,75.20
2018-05-27T06:16:16.311Z,76.20
2018-05-27T06:18:43.878Z,75.80
2018-05-27T06:21:12.984Z,77.50
2018-05-27T06:23:44.710Z,77.60
2018-05-27T06:26:16.520Z,76.60
2018-05-27T06:28:51.517Z,75.20
2018-05-27T06:31:24.618Z,75.90
2018-05-27T06:33:56.388Z,75.90
2018-05-27T06:36:32.540Z,75.80
2018-05-27T06:39:03.054Z,75.30
2018-05-27T06:41:31.287Z,76.10
2018-05-27T06:44:07.513Z,76.00
2018-05-27T06:46:40.951Z,73.90
2018-05-27T06:49:11.693Z,73.60
2018-05-27T06:51:42.712Z,73.50
2018-05-27T06:54:13.468Z,73.50
2018-05-27T06:56:43.628Z,72.00
2018-05-27T07:01:58.794Z,71.00
2018-05-27T07:07:11.260Z,70.10
2018-05-27T07:09:43.292Z,69.50
2018-05-27T07:12:18.157Z,68.10
2018-05-27T07:14:46.490Z,67.10
2018-05-27T07:17:15.276Z,65.80
2018-05-27T07:19:43.323Z,66.00
2018-05-27T07:22:13.441Z,66.70
2018-05-27T07:24:43.577Z,67.30
2018-05-27T07:27:16.430Z,68.90
2018-05-27T07:29:46.222Z,68.80
2018-05-27T07:32:20.234Z,68.10
2018-05-27T07:35:02.178Z,67.10
2018-05-27T07:37:31.119Z,67.10
2018-05-27T07:39:59.323Z,66.00
2018-05-27T07:42:26.853Z,66.20
2018-05-27T07:45:16.721Z,66.30
2018-05-27T07:47:48.462Z,65.80
2018-05-27T07:50:17.385Z,66.90
2018-05-27T07:52:46.369Z,67.10
2018-05-27T07:55:23.582Z,68.80
2018-05-27T07:58:04.005Z,67.70
2018-05-27T08:00:35.295Z,68.20
2018-05-27T08:03:07.633Z,66.50
2018-05-27T08:05:36.297Z,66.30
2018-05-27T08:08:05.397Z,66.20
2018-05-27T08:10:34.500Z,66.40
2018-05-27T08:13:04.849Z,66.10
2018-05-27T08:15:32.642Z,67.20
2018-05-27T08:18:05.697Z,66.50
2018-05-27T08:20:58.818Z,67.10
2018-05-27T08:30:30.524Z,68.30
2018-05-27T08:32:58.871Z,66.40
2018-05-27T09:38:20.549Z,58.80
2018-05-27T09:50:22.227Z,53.40
2018-05-27T09:53:21.802Z,56.50
2018-05-27T10:04:18.596Z,56.30
2018-05-27T10:06:46.132Z,57.40
2018-05-27T10:09:38.459Z,55.60
2018-05-27T10:12:13.371Z,53.20
2018-05-27T10:15:03.260Z,52.90
2018-05-27T10:17:40.293Z,52.50
2018-05-27T10:29:26.431Z,49.10
2018-05-27T10:51:45.788Z,49.70
2018-05-27T10:59:38.466Z,46.10
2018-05-27T11:10:12.956Z,46.90
2018-05-27T11:18:38.535Z,46.70
2018-05-27T11:21:11.791Z,48.20
2018-05-27T11:23:39.378Z,48.10
2018-05-27T11:26:07.926Z,48.60
2018-05-27T11:28:35.469Z,48.40
2018-05-27T11:31:03.103Z,47.10
2018-05-27T11:33:30.631Z,46.80
2018-05-27T11:35:58.180Z,48.00
2018-05-27T11:38:26.681Z,45.90
2018-05-27T11:40:54.222Z,49.00
2018-05-27T11:43:21.771Z,49.00
2018-05-27T11:45:49.295Z,50.90
2018-05-27T11:48:16.819Z,47.70
2018-05-27T11:50:44.423Z,48.40
2018-05-27T11:53:12.160Z,47.70
2018-05-27T11:55:41.154Z,50.80
2018-05-27T11:58:22.930Z,49.40
2018-05-27T12:37:04.260Z,49.10
2018-05-27T13:33:13.098Z,56.20
2018-05-27T13:36:10.764Z,57.60
2018-05-27T13:53:10.509Z,61.50
2018-05-27T13:59:03.339Z,62.80
